createdAt,value
2019-04-23T00:00:56.319Z,3.43
2019-04-23T00:03:18.825Z,4.30
2019-04-23T00:06:00.560Z,3.40
2019-04-23T00:08:25.854Z,5.00
2019-04-23T00:10:58.471Z,4.27
2019-04-23T00:13:35.357Z,4.27
2019-04-23T00:16:17.914Z,4.00
2019-04-23T00:21:28.239Z,7.57
2019-04-23T00:24:13.805Z,9.20
2019-04-23T00:29:13.595Z,9.03
2019-04-23T00:31:31.417Z,7.87
2019-04-23T00:34:10.810Z,6.33
2019-04-23T00:36:37.741Z,5.67
2019-04-23T00:39:12.854Z,5.73
2019-04-23T00:41:42.694Z,5.47
2019-04-23T00:44:21.251Z,4.37
2019-04-23T00:46:54.429Z,4.07
2019-04-23T00:49:22.605Z,4.07
2019-04-23T00:54:17.924Z,4.97
2019-04-23T00:56:54.442Z,3.73
2019-04-23T00:59:20.691Z,3.93
2019-04-23T01:04:25.456Z,4.40
2019-04-23T01:06:58.276Z,4.60
2019-04-23T01:09:29.340Z,4.63
2019-04-23T01:11:57.881Z,4.70
2019-04-23T01:14:33.316Z,3.90
2019-04-23T01:17:08.807Z,3.80
2019-04-23T01:19:48.396Z,3.90
2019-04-23T01:21:55.837Z,4.30
2019-04-23T01:24:52.285Z,4.47
2019-04-23T01:28:04.242Z,4.90
2019-04-23T01:30:19.779Z,5.00
2019-04-23T01:32:51.876Z,4.87
2019-04-23T01:35:36.337Z,4.87
2019-04-23T01:37:56.137Z,5.63
2019-04-23T01:40:27.249Z,4.97
2019-04-23T01:43:07.982Z,6.70
2019-04-23T01:47:59.782Z,5.20
2019-04-23T01:50:37.876Z,5.47
2019-04-23T01:53:06.896Z,4.83
2019-04-23T01:55:33.060Z,4.50
2019-04-23T01:58:23.849Z,5.83
2019-04-23T02:03:13.613Z,4.97
2019-04-23T02:05:41.302Z,4.63
2019-04-23T02:08:08.424Z,5.17
2019-04-23T02:13:16.527Z,5.63
2019-04-23T02:15:46.222Z,5.00
2019-04-23T02:18:16.336Z,5.17
2019-04-23T02:20:47.265Z,4.50
2019-04-23T02:23:32.763Z,5.80
2019-04-23T02:26:07.858Z,6.37
2019-04-23T02:28:34.088Z,5.57
2019-04-23T02:31:40.822Z,6.07
2019-04-23T02:38:45.739Z,5.33
2019-04-23T02:41:27.107Z,5.50
2019-04-23T02:43:56.243Z,6.87
2019-04-23T02:51:17.976Z,6.87
2019-04-23T02:56:30.700Z,5.80
2019-04-23T02:58:54.481Z,9.00
2019-04-23T03:16:55.186Z,7.80
2019-04-23T03:19:49.754Z,8.27
2019-04-23T03:22:51.677Z,7.30
2019-04-23T03:27:55.995Z,6.90
2019-04-23T03:38:41.930Z,8.00
2019-04-23T03:41:09.015Z,9.23
2019-04-23T03:43:33.625Z,8.37
2019-04-23T03:50:55.561Z,7.70
2019-04-23T03:53:43.190Z,9.27
2019-04-23T03:56:14.529Z,9.37
2019-04-23T04:01:11.896Z,9.50
2019-04-23T04:06:29.275Z,11.20
2019-04-23T04:08:50.701Z,8.93
2019-04-23T04:13:55.834Z,9.17
2019-04-23T04:16:38.291Z,9.70
2019-04-23T04:26:37.836Z,8.97
2019-04-23T04:28:58.830Z,10.03
2019-04-23T04:31:36.871Z,10.03
2019-04-23T04:36:28.070Z,10.70
2019-04-23T04:39:06.038Z,11.00
2019-04-23T04:44:17.554Z,10.37
2019-04-23T04:51:55.483Z,10.53
2019-04-23T04:54:09.367Z,10.90
2019-04-23T04:56:37.543Z,13.37
2019-04-23T05:01:37.332Z,12.10
2019-04-23T05:04:18.250Z,13.10
2019-04-23T05:09:25.195Z,13.97
2019-04-23T05:14:20.892Z,12.60
2019-04-23T05:16:46.028Z,12.07
2019-04-23T05:19:35.404Z,11.97
2019-04-23T05:22:02.961Z,14.30
2019-04-23T05:24:31.713Z,12.97
2019-04-23T05:26:58.337Z,11.07
2019-04-23T05:29:23.611Z,13.73
2019-04-23T05:31:57.698Z,12.63
2019-04-23T05:34:29.513Z,11.70
2019-04-23T05:37:00.104Z,11.53
2019-04-23T05:39:35.792Z,12.47
2019-04-23T05:42:04.514Z,11.87
2019-04-23T05:44:41.477Z,13.40
2019-04-23T05:49:43.514Z,13.00
2019-04-23T05:52:12.129Z,11.57
2019-04-23T05:54:43.323Z,13.00
2019-04-23T05:57:11.590Z,11.43
2019-04-23T05:59:43.621Z,11.80
2019-04-23T06:02:11.230Z,12.53
2019-04-23T06:04:42.735Z,12.80
2019-04-23T06:07:28.890Z,12.23
2019-04-23T06:09:56.383Z,11.30
2019-04-23T06:12:18.742Z,11.53
2019-04-23T06:14:55.840Z,10.70
2019-04-23T06:17:21.362Z,9.77
2019-04-23T06:20:01.257Z,11.47
2019-04-23T06:22:30.025Z,11.47
2019-04-23T06:25:04.313Z,10.73
2019-04-23T06:27:28.967Z,9.90
2019-04-23T06:29:57.117Z,10.70
2019-04-23T06:32:32.915Z,11.77
2019-04-23T06:34:56.844Z,10.00
2019-04-23T06:38:00.005Z,9.63
2019-04-23T06:39:59.775Z,11.67
2019-04-23T06:42:35.530Z,11.17
2019-04-23T06:45:10.066Z,11.00
2019-04-23T06:47:43.060Z,11.23
2019-04-23T06:50:14.480Z,9.70
2019-04-23T06:52:41.133Z,9.93
2019-04-23T06:55:20.635Z,10.90
2019-04-23T06:57:52.266Z,11.27
2019-04-23T07:00:21.166Z,10.57
2019-04-23T07:02:57.012Z,11.07
2019-04-23T07:05:23.823Z,10.63
2019-04-23T07:07:59.754Z,11.63
2019-04-23T07:10:25.008Z,11.00
2019-04-23T07:12:56.182Z,11.20
2019-04-23T07:15:39.155Z,10.70
2019-04-23T07:17:54.285Z,11.60
2019-04-23T07:20:33.483Z,10.20
2019-04-23T07:23:04.856Z,10.73
2019-04-23T07:25:34.584Z,11.50
2019-04-23T07:28:09.888Z,10.30
2019-04-23T07:30:33.304Z,10.53
2019-04-23T07:33:11.557Z,10.30
2019-04-23T07:35:45.576Z,11.00
2019-04-23T07:38:44.273Z,11.40
2019-04-23T07:41:18.345Z,11.10
2019-04-23T07:43:54.539Z,12.57
2019-04-23T07:46:52.695Z,12.20
2019-04-23T07:49:20.814Z,9.70
2019-04-23T07:51:59.044Z,10.83
2019-04-23T07:54:22.739Z,11.40
2019-04-23T07:56:53.988Z,10.57
2019-04-23T07:59:25.324Z,12.10
2019-04-23T08:01:58.131Z,11.10
2019-04-23T08:04:29.290Z,9.37
2019-04-23T08:06:55.906Z,10.27
2019-04-23T08:09:34.226Z,10.10
2019-04-23T08:11:56.286Z,11.10
2019-04-23T08:14:32.800Z,10.77
2019-04-23T08:16:58.241Z,9.03
2019-04-23T08:19:42.501Z,9.37
2019-04-23T08:22:15.533Z,9.77
2019-04-23T08:24:57.316Z,11.23
2019-04-23T08:27:32.839Z,10.70
2019-04-23T08:30:18.053Z,11.70
2019-04-23T08:32:27.984Z,9.73
2019-04-23T08:35:10.568Z,10.43
2019-04-23T08:37:54.358Z,10.80
2019-04-23T08:40:15.127Z,11.17
2019-04-23T08:45:24.140Z,10.30
2019-04-23T08:50:54.701Z,10.50
2019-04-23T08:53:31.736Z,12.40
2019-04-23T09:05:57.777Z,11.10
2019-04-23T09:11:04.680Z,12.20
2019-04-23T09:16:13.562Z,8.90
2019-04-23T09:18:32.616Z,12.00
2019-04-23T09:21:02.157Z,10.33
2019-04-23T09:23:40.932Z,11.60
2019-04-23T09:26:02.321Z,10.27
2019-04-23T09:34:11.428Z,12.80
2019-04-23T09:37:18.886Z,8.93
2019-04-23T09:40:13.959Z,11.00
2019-04-23T09:42:47.811Z,11.03
2019-04-23T09:45:24.868Z,10.50
2019-04-23T09:48:11.582Z,11.63
2019-04-23T09:53:17.753Z,10.70
2019-04-23T09:58:08.193Z,11.53
2019-04-23T10:00:40.664Z,11.00
2019-04-23T10:03:04.673Z,11.93
2019-04-23T10:05:30.870Z,11.30
2019-04-23T10:08:01.615Z,11.93
2019-04-23T10:10:22.774Z,11.70
2019-04-23T10:12:53.905Z,13.37
2019-04-23T10:15:28.837Z,12.70
2019-04-23T10:17:56.196Z,14.67
2019-04-23T10:20:26.730Z,13.90
2019-04-23T10:22:56.760Z,12.53
2019-04-23T10:25:27.768Z,15.20
2019-04-23T10:28:01.593Z,15.20
2019-04-23T10:30:28.912Z,14.60
2019-04-23T10:32:58.360Z,11.63
2019-04-23T10:35:39.465Z,12.00
2019-04-23T10:38:04.424Z,13.27
2019-04-23T10:40:34.806Z,11.30
2019-04-23T10:43:02.115Z,13.10
2019-04-23T10:46:15.092Z,12.30
2019-04-23T10:54:26.325Z,11.17
2019-04-23T10:56:55.297Z,11.77
2019-04-23T10:59:38.959Z,13.20
2019-04-23T11:04:54.288Z,12.40
2019-04-23T11:07:28.572Z,11.07
2019-04-23T11:12:46.177Z,13.20
2019-04-23T11:17:52.046Z,12.50
2019-04-23T11:20:30.332Z,12.00
2019-04-23T11:22:50.947Z,12.57
2019-04-23T11:25:31.631Z,12.60
2019-04-23T11:35:43.033Z,12.57
2019-04-23T11:40:34.007Z,13.27
2019-04-23T11:43:09.419Z,13.10
2019-04-23T11:45:51.542Z,12.10
2019-04-23T11:51:30.349Z,13.67
2019-04-23T11:55:47.674Z,13.27
2019-04-23T12:01:23.345Z,12.30
2019-04-23T12:04:00.326Z,11.57
2019-04-23T12:06:44.426Z,11.50
2019-04-23T12:09:33.777Z,12.53
2019-04-23T12:27:17.213Z,12.23
2019-04-23T12:29:46.182Z,12.07
2019-04-23T12:40:23.136Z,12.10
2019-04-23T12:42:58.734Z,15.03
2019-04-23T12:48:09.596Z,10.37
2019-04-23T12:50:41.793Z,13.23
2019-04-23T12:55:27.891Z,9.63
2019-04-23T12:57:56.438Z,11.80
2019-04-23T13:00:25.944Z,12.17
2019-04-23T13:03:12.497Z,11.50
2019-04-23T13:05:26.616Z,10.90
2019-04-23T13:08:05.793Z,11.33
2019-04-23T13:10:32.562Z,12.13
2019-04-23T13:13:11.379Z,10.40
2019-04-23T13:15:34.543Z,10.03
2019-04-23T13:18:06.666Z,10.33
2019-04-23T13:20:33.635Z,10.27
2019-04-23T13:23:15.243Z,10.63
2019-04-23T13:28:21.732Z,10.80
2019-04-23T13:30:58.977Z,10.17
2019-04-23T13:36:01.651Z,10.60
2019-04-23T13:38:35.497Z,9.50
2019-04-23T13:41:01.181Z,11.13
2019-04-23T13:43:39.777Z,11.80
2019-04-23T13:45:59.206Z,10.80
2019-04-23T13:48:24.783Z,14.50
2019-04-23T13:51:06.978Z,10.33
2019-04-23T13:56:04.166Z,10.27
2019-04-23T13:58:46.708Z,10.20
2019-04-23T14:18:59.137Z,10.10
2019-04-23T14:21:35.315Z,10.00
2019-04-23T14:28:55.408Z,11.03
2019-04-23T14:31:24.010Z,9.53
2019-04-23T14:39:21.997Z,10.43
2019-04-23T14:41:27.289Z,9.70
2019-04-23T14:44:12.828Z,10.10
2019-04-23T14:49:11.236Z,10.87
2019-04-23T14:54:33.430Z,9.63
2019-04-23T14:56:59.402Z,10.47
2019-04-23T14:59:16.317Z,10.23
2019-04-23T15:01:54.924Z,11.27
2019-04-23T15:04:26.987Z,9.90
2019-04-23T15:07:10.830Z,11.27
2019-04-23T15:09:36.271Z,9.43
2019-04-23T15:12:11.865Z,10.00
2019-04-23T15:14:37.528Z,10.70
2019-04-23T15:17:07.614Z,11.75
2019-04-23T15:19:52.345Z,8.80
2019-04-23T15:22:17.064Z,11.05
2019-04-23T15:25:15.204Z,10.63
2019-04-23T15:28:01.977Z,10.05
2019-04-23T15:29:31.797Z,10.60
2019-04-23T15:32:19.793Z,10.23
2019-04-23T15:34:49.030Z,11.23
2019-04-23T15:37:33.341Z,11.20
2019-04-23T15:39:56.629Z,11.53
2019-04-23T15:44:55.795Z,11.20
2019-04-23T15:47:26.715Z,11.37
2019-04-23T15:50:07.379Z,11.20
2019-04-23T15:52:34.794Z,10.77
2019-04-23T15:57:44.966Z,11.33
2019-04-23T15:59:58.855Z,11.80
2019-04-23T16:02:03.887Z,11.77
2019-04-23T16:04:33.783Z,11.80
2019-04-23T16:07:04.533Z,12.07
2019-04-23T16:10:08.983Z,11.60
2019-04-23T16:12:33.369Z,10.43
2019-04-23T16:17:35.420Z,10.83
2019-04-23T16:20:25.481Z,10.90
2019-04-23T16:22:48.746Z,11.60
2019-04-23T16:25:17.907Z,13.90
2019-04-23T16:27:56.387Z,11.33
2019-04-23T16:30:36.465Z,11.47
2019-04-23T16:38:38.957Z,11.80
2019-04-23T16:41:00.739Z,12.63
2019-04-23T16:43:30.361Z,11.70
2019-04-23T16:46:07.268Z,13.93
2019-04-23T16:48:46.253Z,11.83
2019-04-23T16:53:46.310Z,12.53
2019-04-23T16:56:13.542Z,12.63
2019-04-23T16:58:57.888Z,13.50
2019-04-23T17:03:37.887Z,13.23
2019-04-23T17:06:21.832Z,12.53
2019-04-23T17:08:57.940Z,12.13
2019-04-23T17:13:50.981Z,12.70
2019-04-23T17:21:18.668Z,11.60
2019-04-23T17:24:05.768Z,12.53
2019-04-23T17:26:25.589Z,13.20
2019-04-23T17:29:00.003Z,13.57
2019-04-23T17:31:35.146Z,13.00
2019-04-23T17:33:59.089Z,13.30
2019-04-23T17:36:44.291Z,13.43
2019-04-23T17:39:21.117Z,12.40
2019-04-23T17:42:22.528Z,12.37
2019-04-23T17:45:06.355Z,12.87
2019-04-23T17:47:30.055Z,12.33
2019-04-23T17:50:59.521Z,12.77
2019-04-23T17:52:26.235Z,12.30
2019-04-23T17:55:01.756Z,12.77
2019-04-23T17:57:29.708Z,11.40
2019-04-23T18:05:06.142Z,14.57
2019-04-23T18:10:17.870Z,13.60
2019-04-23T18:12:46.262Z,12.63
2019-04-23T18:15:13.171Z,12.90
2019-04-23T18:17:41.066Z,11.63
2019-04-23T18:20:38.448Z,13.97
2019-04-23T18:23:10.111Z,12.83
2019-04-23T18:28:13.551Z,13.20
2019-04-23T18:31:12.978Z,12.83
2019-04-23T18:36:16.640Z,17.60
2019-04-23T18:41:17.045Z,13.70
2019-04-23T18:43:50.997Z,14.80
2019-04-23T18:46:27.889Z,15.03
2019-04-23T18:48:49.731Z,14.43
2019-04-23T18:51:20.660Z,15.77
2019-04-23T18:54:07.412Z,14.70
2019-04-23T18:56:30.625Z,14.07
2019-04-23T18:59:02.818Z,14.23
2019-04-23T19:01:45.106Z,14.40
2019-04-23T19:07:07.250Z,16.70
2019-04-23T19:13:02.142Z,15.50
2019-04-23T19:18:12.923Z,15.50
2019-04-23T19:23:13.821Z,15.93
2019-04-23T19:25:32.738Z,15.57
2019-04-23T19:28:15.652Z,15.87
2019-04-23T19:30:55.717Z,15.70
2019-04-23T19:33:29.299Z,15.17
2019-04-23T19:43:39.592Z,14.30
2019-04-23T19:46:12.704Z,14.60
2019-04-23T19:51:09.540Z,15.97
2019-04-23T19:58:51.745Z,14.70
2019-04-23T20:01:15.426Z,16.60
2019-04-23T20:03:49.586Z,15.27
2019-04-23T20:09:01.365Z,15.00
2019-04-23T20:11:13.530Z,17.47
2019-04-23T20:13:52.733Z,15.63
2019-04-23T20:16:19.670Z,16.70
2019-04-23T20:18:52.261Z,15.50
2019-04-23T20:21:13.491Z,14.83
2019-04-23T20:24:04.694Z,15.40
2019-04-23T20:26:17.137Z,16.17
2019-04-23T20:34:34.217Z,17.97
2019-04-23T20:39:25.121Z,15.40
2019-04-23T20:42:11.007Z,15.77
2019-04-23T20:47:06.219Z,17.13
2019-04-23T20:49:38.984Z,17.67
2019-04-23T20:54:42.228Z,15.40
2019-04-23T20:57:30.500Z,17.60
2019-04-23T21:03:25.949Z,17.17
2019-04-23T21:05:22.869Z,16.90
2019-04-23T21:15:40.655Z,18.17
2019-04-23T21:18:17.250Z,19.40
2019-04-23T21:20:42.974Z,15.83
2019-04-23T21:23:11.175Z,17.70
2019-04-23T21:25:43.855Z,18.30
2019-04-23T21:28:31.440Z,17.50
2019-04-23T21:31:00.789Z,21.50
2019-04-23T21:33:30.414Z,17.57
2019-04-23T21:39:04.012Z,19.80
2019-04-23T21:41:39.636Z,20.73
2019-04-23T21:56:37.170Z,17.63
2019-04-23T22:06:43.269Z,20.00
2019-04-23T22:09:16.156Z,18.40
2019-04-23T22:12:02.501Z,20.10
2019-04-23T22:16:57.898Z,21.33
2019-04-23T22:21:52.566Z,19.80
2019-04-23T22:24:17.009Z,20.00
2019-04-23T22:26:45.387Z,23.90
2019-04-23T22:29:26.221Z,20.60
2019-04-23T22:37:03.841Z,19.27
2019-04-23T22:39:23.868Z,19.90
2019-04-23T22:44:31.025Z,20.33
2019-04-23T22:47:04.323Z,24.13
2019-04-23T22:49:38.899Z,22.73
2019-04-23T22:52:08.761Z,22.67
2019-04-23T22:54:40.140Z,21.20
2019-04-23T22:57:26.274Z,22.03
2019-04-23T23:00:00.881Z,19.97
2019-04-23T23:02:37.065Z,20.93
2019-04-23T23:07:41.311Z,21.93
2019-04-23T23:10:06.863Z,20.33
2019-04-23T23:12:43.715Z,19.17
2019-04-23T23:15:08.373Z,21.90
2019-04-23T23:20:16.049Z,18.50
2019-04-23T23:22:51.764Z,18.30
2019-04-23T23:25:25.500Z,21.37
2019-04-23T23:27:51.800Z,21.27
2019-04-23T23:30:21.685Z,18.80
2019-04-23T23:32:51.771Z,21.07
2019-04-23T23:35:24.513Z,20.00
2019-04-23T23:37:49.932Z,19.23
2019-04-23T23:40:21.849Z,20.57
2019-04-23T23:43:03.666Z,20.57
2019-04-23T23:47:58.662Z,18.80
2019-04-23T23:50:27.013Z,21.10
2019-04-23T23:53:11.948Z,19.20
2019-04-23T23:58:06.774Z,20.73
